Time;durP1;ratioP1;P1;durP2;ratioP2;P2;SDS_P1;SDS_P2;PMS_P1;PMS_P2;Temp;Humidity;BMP_temperature;BMP_pressure;BME280_temperature;BME280_humidity;BME280_pressure;Samples;Min_cycle;Max_cycle;Signal;HPM_P1;HPM_P2
2021/06/22 00:00:35;;;;;;;14.82;6.50;;;;;;;19.66;69.58;100173.28;5133043;27;20100;-75
2021/06/22 00:03:00;;;;;;;13.57;6.40;;;;;;;19.66;69.66;100173.28;5132889;27;20114;-71
2021/06/22 00:05:27;;;;;;;12.95;6.25;;;;;;;19.69;69.58;100178.34;5133062;27;20046;-76
2021/06/22 00:07:56;;;;;;;14.65;6.50;;;;;;;19.71;70.01;100180.84;5132551;28;20499;-72
2021/06/22 00:10:25;;;;;;;13.82;6.22;;;;;;;19.71;69.72;100179.03;5121005;27;20043;-74
2021/06/22 00:12:51;;;;;;;11.43;5.97;;;;;;;19.74;69.43;100177.84;5112064;28;20075;-72
2021/06/22 00:15:19;;;;;;;9.75;5.50;;;;;;;19.73;69.46;100181.53;5112206;28;20074;-74
2021/06/22 00:17:46;;;;;;;14.45;6.13;;;;;;;19.70;69.28;100177.34;5111887;28;20043;-73
2021/06/22 00:20:13;;;;;;;13.95;6.32;;;;;;;19.69;69.41;100180.19;5111416;28;20492;-74
2021/06/22 00:22:40;;;;;;;14.45;5.93;;;;;;;19.65;69.35;100185.03;5112487;28;20101;-72
2021/06/22 00:25:07;;;;;;;13.65;5.88;;;;;;;19.61;69.40;100188.22;5111530;28;20040;-73
2021/06/22 00:27:33;;;;;;;11.75;5.57;;;;;;;19.56;69.57;100180.66;5111863;28;20046;-76
2021/06/22 00:29:59;;;;;;;9.60;5.60;;;;;;;19.52;69.66;100190.03;5112048;28;20047;-73
2021/06/22 00:32:25;;;;;;;13.68;6.72;;;;;;;19.46;70.08;100182.66;5112193;28;20070;-71
2021/06/22 00:34:51;;;;;;;10.52;6.38;;;;;;;19.42;70.09;100195.56;5111813;28;20035;-73
2021/06/22 00:37:18;;;;;;;9.10;5.70;;;;;;;19.41;70.29;100193.88;5113407;28;20043;-75
2021/06/22 00:39:45;;;;;;;17.45;6.22;;;;;;;19.38;70.30;100194.19;5116023;28;20044;-75
2021/06/22 00:42:14;;;;;;;13.60;6.30;;;;;;;19.37;70.49;100187.16;5097658;28;20036;-73
2021/06/22 00:44:53;;;;;;;12.43;6.25;;;;;;;19.34;70.57;100185.63;5102642;27;20047;-73
2021/06/22 00:47:21;;;;;;;12.55;6.25;;;;;;;19.31;70.41;100187.81;5135364;27;20057;-73
2021/06/22 00:49:51;;;;;;;10.63;6.28;;;;;;;19.30;70.82;100186.13;5135146;27;20039;-73
2021/06/22 00:52:22;;;;;;;13.57;6.15;;;;;;;19.30;70.68;100196.84;5135485;27;20050;-73
2021/06/22 00:54:49;;;;;;;10.07;6.28;;;;;;;19.30;70.84;100191.47;5135234;27;20038;-75
2021/06/22 00:57:15;;;;;;;11.40;6.30;;;;;;;19.29;70.58;100192.47;5136190;27;20129;-74
2021/06/22 00:59:43;;;;;;;13.90;6.35;;;;;;;19.28;70.81;100193.47;5134601;27;20051;-73
2021/06/22 01:02:09;;;;;;;11.90;6.53;;;;;;;19.29;70.76;100197.84;5136228;27;20527;-73
2021/06/22 01:04:36;;;;;;;10.80;6.23;;;;;;;19.27;70.57;100191.81;5136131;27;20039;-73
2021/06/22 01:07:31;;;;;;;10.63;6.30;;;;;;;19.27;70.52;100189.97;5110807;27;20288;-73
2021/06/22 01:09:59;;;;;;;11.10;6.53;;;;;;;19.23;70.61;100192.13;5134633;27;20039;-75
2021/06/22 01:12:25;;;;;;;15.88;6.22;;;;;;;19.22;70.54;100201.19;5134712;27;20046;-72
2021/06/22 01:14:51;;;;;;;14.93;5.87;;;;;;;19.22;70.65;100190.44;5135887;27;20047;-72
2021/06/22 01:17:17;;;;;;;10.05;6.07;;;;;;;19.21;70.75;100199.50;5136117;27;20379;-73
2021/06/22 01:19:44;;;;;;;10.40;6.15;;;;;;;19.21;70.82;100198.66;5135853;27;20130;-73
2021/06/22 01:22:11;;;;;;;15.20;6.28;;;;;;;19.21;70.85;100196.81;5134767;27;20069;-72
2021/06/22 01:24:43;;;;;;;19.05;6.72;;;;;;;19.21;70.70;100202.16;5135565;27;20532;-73
2021/06/22 01:27:10;;;;;;;12.55;5.78;;;;;;;19.20;70.75;100197.84;5135440;27;20099;-73
2021/06/22 01:29:36;;;;;;;14.93;6.65;;;;;;;19.15;70.74;100200.16;5117055;27;20040;-71
2021/06/22 01:32:07;;;;;;;13.93;6.63;;;;;;;19.12;71.06;100203.16;5134084;27;20042;-72
2021/06/22 01:34:33;;;;;;;11.57;6.72;;;;;;;19.09;70.87;100206.16;5134779;27;20531;-72
2021/06/22 01:36:59;;;;;;;11.13;6.03;;;;;;;19.11;71.14;100209.50;5135577;27;20049;-71
2021/06/22 01:39:33;;;;;;;13.52;6.10;;;;;;;19.13;71.08;100212.88;5134283;27;20127;-71
2021/06/22 01:42:03;;;;;;;15.32;6.30;;;;;;;19.17;71.02;100208.88;5133709;27;20058;-72
2021/06/22 01:44:32;;;;;;;13.05;6.45;;;;;;;19.20;70.89;100213.94;5134196;27;20549;-72
2021/06/22 01:46:58;;;;;;;7.30;4.70;;;;;;;19.25;70.37;100208.06;5135373;27;20131;-71
2021/06/22 01:49:25;;;;;;;11.80;5.72;;;;;;;19.33;70.09;100216.16;5134397;27;20047;-71
2021/06/22 01:51:51;;;;;;;11.75;6.50;;;;;;;19.39;69.94;100212.00;5134110;27;20061;-71
2021/06/22 01:54:20;;;;;;;10.27;6.13;;;;;;;19.44;69.86;100215.00;5133771;27;20054;-72
2021/06/22 01:56:51;;;;;;;5.78;3.55;;;;;;;19.50;69.03;100219.72;5133778;27;20039;-71
2021/06/22 01:59:21;;;;;;;5.72;3.35;;;;;;;19.69;67.73;100223.97;5135212;27;20047;-72
2021/06/22 02:01:50;;;;;;;7.00;3.17;;;;;;;19.93;66.59;100218.84;5132249;27;20518;-72
2021/06/22 02:04:31;;;;;;;5.38;3.03;;;;;;;20.12;65.87;100217.66;5115740;27;20043;-72
2021/06/22 02:07:04;;;;;;;4.65;3.22;;;;;;;20.22;65.35;100217.50;5115457;27;20035;-73
2021/06/22 03:42:20;;;;;;;15.43;4.70;;;;;;;23.42;56.38;100237.25;5124260;27;20172;-73
2021/06/22 03:44:46;;;;;;;11.90;3.00;;;;;;;23.57;55.30;100234.53;5113928;27;20050;-75
2021/06/22 03:47:18;;;;;;;6.18;4.00;;;;;;;23.68;55.65;100234.03;5132434;27;20058;-73
2021/06/22 03:49:44;;;;;;;8.05;3.75;;;;;;;23.82;55.38;100240.41;5116975;27;20084;-77
2021/06/22 03:52:10;;;;;;;13.65;4.07;;;;;;;24.02;55.25;100245.22;5126806;27;20051;-75
2021/06/22 03:54:37;;;;;;;9.68;3.80;;;;;;;24.28;54.78;100247.34;5107850;28;20130;-73
2021/06/22 03:57:04;;;;;;;;;;;;;;;25.35;52.50;100237.22;5096369;27;20055;-74
2021/06/22 03:59:56;;;;;;;13.20;3.30;;;;;;;26.78;48.15;100240.00;5117849;27;19919;-73
2021/06/22 04:02:22;;;;;;;15.00;3.53;;;;;;;27.50;47.02;100233.75;5112260;28;20106;-74
2021/06/22 04:04:48;;;;;;;6.72;3.60;;;;;;;28.07;45.80;100236.56;5118485;27;20480;-77
2021/06/22 04:07:31;;;;;;;16.17;3.88;;;;;;;28.86;44.23;100236.97;5110202;28;20039;-77
2021/06/22 04:09:58;;;;;;;11.77;3.13;;;;;;;29.65;42.78;100246.31;5105766;28;20039;-76
2021/06/22 04:12:24;;;;;;;9.00;3.10;;;;;;;30.27;40.26;100242.47;5111611;28;20427;-73
2021/06/22 04:15:04;;;;;;;13.75;4.18;;;;;;;30.67;38.58;100236.38;5129758;27;20070;-76
2021/06/22 04:17:48;;;;;;;12.57;3.35;;;;;;;31.17;38.29;100235.03;5114216;28;20126;-73
2021/06/22 04:20:14;;;;;;;7.57;3.15;;;;;;;31.40;37.11;100231.38;5132406;28;20046;-73
2021/06/22 04:22:41;;;;;;;11.35;3.38;;;;;;;32.04;36.66;100235.88;5113498;28;20428;-75
2021/06/22 04:25:12;;;;;;;6.47;2.50;;;;;;;32.47;35.60;100235.47;5113102;28;20178;-73
2021/06/22 04:27:38;;;;;;;10.88;2.92;;;;;;;32.82;35.25;100248.06;5122246;27;20135;-73
2021/06/22 04:30:05;;;;;;;9.03;2.87;;;;;;;33.17;33.57;100242.25;5100879;28;20126;-72
2021/06/22 04:32:32;;;;;;;8.10;2.88;;;;;;;33.40;33.56;100234.88;5122350;28;20131;-75
2021/06/22 04:34:57;;;;;;;7.40;3.17;;;;;;;33.59;32.41;100243.56;5126608;28;20126;-74
2021/06/22 04:37:23;;;;;;;10.33;2.90;;;;;;;34.00;32.11;100241.25;5127444;28;20044;-73
2021/06/22 04:39:49;;;;;;;8.07;3.70;;;;;;;33.82;32.90;100239.72;5111870;28;20487;-74
2021/06/22 04:42:16;;;;;;;8.68;3.05;;;;;;;34.26;31.77;100243.38;5123658;28;20062;-71
2021/06/22 04:44:42;;;;;;;7.30;2.88;;;;;;;34.87;31.25;100242.19;5132300;27;20081;-71
2021/06/22 04:47:08;;;;;;;7.80;3.10;;;;;;;34.65;31.49;100241.22;5111873;28;20063;-72
2021/06/22 04:49:34;;;;;;;11.87;3.80;;;;;;;34.97;31.04;100234.81;5105490;28;20492;-76
2021/06/22 04:52:00;;;;;;;8.07;3.80;;;;;;;34.93;30.92;100241.13;5128734;28;20047;-75
2021/06/22 04:54:25;;;;;;;11.50;5.00;;;;;;;34.48;31.08;100235.06;5124340;28;20282;-73
2021/06/22 04:56:52;;;;;;;8.00;4.20;;;;;;;35.14;29.97;100237.38;5112181;28;20039;-76
2021/06/22 04:59:18;;;;;;;;;;;;;;;35.87;29.06;100243.09;5094819;28;20036;-77
2021/06/22 05:01:43;;;;;;;9.52;3.92;;;;;;;36.52;28.16;100237.88;5123652;27;19998;-71
2021/06/22 05:04:11;;;;;;;10.23;3.67;;;;;;;37.76;26.46;100242.94;5128143;28;20035;-72
2021/06/22 05:06:37;;;;;;;9.15;4.10;;;;;;;38.25;26.18;100245.88;5120734;28;20047;-76
2021/06/22 05:09:03;;;;;;;9.00;3.70;;;;;;;37.95;26.62;100247.81;5111863;28;20046;-71
2021/06/22 05:11:29;;;;;;;7.35;4.13;;;;;;;37.93;26.99;100247.25;5110946;28;20043;-71
2021/06/22 05:13:56;;;;;;;8.05;4.00;;;;;;;38.17;26.28;100241.78;5111717;28;20032;-76
2021/06/22 05:16:22;;;;;;;8.48;4.35;;;;;;;38.49;25.40;100235.72;5111849;28;20036;-71
2021/06/22 05:18:48;;;;;;;8.50;3.75;;;;;;;38.16;25.86;100245.66;5111593;28;20112;-75
2021/06/22 05:21:14;;;;;;;10.63;3.13;;;;;;;38.35;25.20;100243.88;5111422;28;20055;-71
2021/06/22 05:23:40;;;;;;;11.65;3.45;;;;;;;38.34;25.65;100252.47;5130006;27;20074;-71
2021/06/22 05:26:07;;;;;;;8.23;3.50;;;;;;;37.92;25.86;100253.88;5129624;27;20049;-73
2021/06/22 05:28:33;;;;;;;14.35;3.20;;;;;;;39.57;23.34;100233.59;5130103;27;20054;-73
2021/06/22 05:30:59;;;;;;;8.68;3.65;;;;;;;40.18;23.54;100242.09;5134046;27;20043;-72
2021/06/22 05:33:25;;;;;;;11.32;3.45;;;;;;;40.02;23.92;100238.75;5134298;27;20039;-75
2021/06/22 05:35:51;;;;;;;9.65;3.58;;;;;;;40.95;22.96;100241.78;5123198;27;20123;-75
2021/06/22 05:38:17;;;;;;;6.35;3.45;;;;;;;41.86;21.93;100242.88;5132669;27;20122;-74
2021/06/22 05:40:42;;;;;;;11.43;3.60;;;;;;;42.26;20.96;100239.34;5110596;28;20032;-75
2021/06/22 05:43:08;;;;;;;14.70;3.83;;;;;;;42.89;20.61;100247.72;5113742;28;20085;-74
2021/06/22 05:45:35;;;;;;;6.40;3.60;;;;;;;41.33;21.69;100242.38;5114508;28;20039;-78
2021/06/22 05:48:00;;;;;;;14.43;4.03;;;;;;;40.16;23.13;100244.34;5114984;28;20489;-73
2021/06/22 05:50:28;;;;;;;10.40;3.20;;;;;;;39.97;23.46;100241.59;5114376;28;20051;-73
2021/06/22 05:52:55;;;;;;;8.90;3.60;;;;;;;39.91;23.59;100237.28;5126206;27;20096;-71
2021/06/22 05:55:21;;;;;;;9.07;3.53;;;;;;;40.57;22.98;100235.31;5123402;27;20483;-77
2021/06/22 05:57:50;;;;;;;16.00;3.85;;;;;;;41.22;22.14;100238.19;5135195;27;20043;-72
2021/06/22 06:00:19;;;;;;;13.35;3.10;;;;;;;42.25;20.78;100237.72;5134254;27;20043;-78
2021/06/22 06:02:45;;;;;;;9.30;3.92;;;;;;;42.41;20.20;100236.22;5131968;27;20102;-76
2021/06/22 06:05:11;;;;;;;10.98;3.25;;;;;;;42.73;20.64;100231.44;5133492;27;20204;-79
2021/06/22 06:07:37;;;;;;;11.15;3.35;;;;;;;43.02;19.73;100227.28;5116755;27;20421;-73
2021/06/22 06:10:06;;;;;;;10.82;3.38;;;;;;;42.43;20.59;100235.88;5134846;27;20145;-76
2021/06/22 06:12:32;;;;;;;8.65;3.20;;;;;;;43.34;19.91;100232.75;5116283;27;20089;-73
2021/06/22 06:14:58;;;;;;;10.05;3.25;;;;;;;44.51;19.01;100226.41;5130904;27;20039;-76
2021/06/22 06:17:23;;;;;;;10.75;3.28;;;;;;;45.61;17.59;100221.97;5122482;27;20457;-80
2021/06/22 06:19:50;;;;;;;12.05;3.33;;;;;;;45.34;18.11;100221.34;5113977;28;20595;-75
2021/06/22 06:22:19;;;;;;;12.23;3.70;;;;;;;45.22;18.12;100222.91;5113265;28;20047;-72
2021/06/22 06:24:45;;;;;;;13.70;3.90;;;;;;;44.47;18.75;100223.47;5116430;27;20031;-75
2021/06/22 06:27:15;;;;;;;11.65;3.72;;;;;;;44.40;18.96;100223.16;5132724;27;20518;-74
2021/06/22 06:30:02;;;;;;;12.63;3.70;;;;;;;43.13;20.39;100217.50;5116341;27;20077;-72
2021/06/22 06:32:29;;;;;;;11.23;3.47;;;;;;;43.71;19.78;100219.34;5123085;27;20053;-75
2021/06/22 06:34:54;;;;;;;12.60;3.95;;;;;;;44.17;19.07;100226.16;5134461;27;20400;-76
2021/06/22 06:37:20;;;;;;;11.63;3.70;;;;;;;45.27;18.28;100221.09;5117462;27;20078;-75
2021/06/22 06:39:46;;;;;;;8.90;3.33;;;;;;;45.85;17.22;100219.25;5120543;27;20504;-76
2021/06/22 06:42:11;;;;;;;9.52;3.30;;;;;;;45.31;18.15;100219.22;5124444;27;20063;-75
2021/06/22 06:44:37;;;;;;;17.10;4.13;;;;;;;44.93;18.65;100218.16;5113574;28;20058;-75
2021/06/22 06:47:04;;;;;;;10.98;3.70;;;;;;;44.28;18.73;100216.28;5089130;28;20035;-76
2021/06/22 06:49:30;;;;;;;18.20;3.40;;;;;;;43.74;19.61;100224.25;5095305;28;20055;-76
2021/06/22 06:51:56;;;;;;;17.83;4.07;;;;;;;43.31;20.20;100215.53;5094723;28;20100;-78
2021/06/22 06:54:22;;;;;;;18.17;4.22;;;;;;;42.98;20.17;100221.53;5093952;27;20126;-79
2021/06/22 06:56:48;;;;;;;16.85;3.60;;;;;;;42.93;20.18;100218.91;5099680;27;20633;-77
2021/06/22 06:59:14;;;;;;;11.98;5.90;;;;;;;42.64;20.82;100228.59;5125459;27;20035;-77
2021/06/22 07:01:39;;;;;;;11.75;3.88;;;;;;;44.19;19.22;100223.03;5114649;27;20506;-76
2021/06/22 07:04:05;;;;;;;12.55;3.30;;;;;;;43.97;18.73;100224.06;5133612;27;20075;-81
2021/06/22 07:06:31;;;;;;;13.30;3.80;;;;;;;43.42;18.84;100220.78;5115383;27;20435;-81
2021/06/22 07:08:57;;;;;;;8.40;3.28;;;;;;;42.33;18.85;100221.09;5133640;27;20039;-80
2021/06/22 07:11:22;;;;;;;10.77;3.03;;;;;;;42.73;18.41;100216.72;5115682;27;20553;-75
2021/06/22 07:13:49;;;;;;;11.48;3.38;;;;;;;43.34;18.69;100210.47;5134283;27;20502;-82
2021/06/22 07:16:15;;;;;;;8.52;2.50;;;;;;;43.65;18.34;100218.69;5133857;27;20527;-76
2021/06/22 07:18:41;;;;;;;6.43;2.22;;;;;;;42.82;18.53;100220.34;5116008;27;20069;-84
2021/06/22 07:21:07;;;;;;;7.43;2.33;;;;;;;42.40;19.18;100223.44;5115255;27;20064;-77
2021/06/22 07:23:33;;;;;;;7.07;2.53;;;;;;;42.58;18.97;100213.19;5133616;27;20031;-79
2021/06/22 07:25:59;;;;;;;7.07;2.20;;;;;;;43.08;18.39;100214.03;5133988;27;20574;-78
2021/06/22 07:28:25;;;;;;;9.27;2.55;;;;;;;42.77;18.48;100212.16;5116022;27;20038;-79
2021/06/22 07:30:51;;;;;;;8.35;2.35;;;;;;;42.90;18.09;100207.63;5081510;27;20427;-78
2021/06/22 07:33:17;;;;;;;5.68;2.30;;;;;;;42.64;18.59;100200.78;5133694;27;20087;-80
2021/06/22 07:35:44;;;;;;;4.40;2.38;;;;;;;43.21;18.42;100201.94;5133288;27;20409;-77
2021/06/22 07:38:10;;;;;;;9.30;2.80;;;;;;;43.45;18.41;100204.25;5133663;27;20035;-78
2021/06/22 07:40:37;;;;;;;9.32;3.00;;;;;;;42.33;19.80;100211.94;5097575;27;20058;-77
2021/06/22 07:43:03;;;;;;;6.53;2.72;;;;;;;42.78;19.26;100211.81;5133195;27;20043;-76
2021/06/22 07:45:28;;;;;;;8.50;3.20;;;;;;;43.05;19.44;100212.69;5134043;27;20369;-79
2021/06/22 07:47:55;;;;;;;7.47;2.58;;;;;;;43.25;19.30;100202.94;5133085;27;20095;-77
2021/06/22 07:50:22;;;;;;;7.35;2.97;;;;;;;43.22;19.35;100206.38;5132024;27;20046;-82
2021/06/22 07:52:48;;;;;;;10.00;2.63;;;;;;;43.88;18.51;100207.34;5132340;27;20039;-74
2021/06/22 07:55:14;;;;;;;7.22;2.65;;;;;;;43.09;19.16;100218.44;5132675;27;20054;-80
2021/06/22 07:57:46;;;;;;;9.52;4.22;;;;;;;42.76;19.75;100213.28;5098186;28;20039;-78
2021/06/22 08:03:10;;;;;;;6.47;3.65;;;;;;;42.49;20.13;100220.69;5128857;27;20058;-79
2021/06/22 08:05:36;;;;;;;5.70;2.88;;;;;;;43.82;18.95;100212.28;5133546;27;20039;-77
2021/06/22 08:08:02;;;;;;;7.45;2.72;;;;;;;43.97;18.51;100222.13;5133978;27;20046;-79
2021/06/22 08:10:28;;;;;;;10.20;3.08;;;;;;;43.65;18.95;100217.88;5133824;27;20457;-82
2021/06/22 08:12:54;;;;;;;9.55;3.35;;;;;;;42.79;19.36;100223.78;5082919;28;20149;-79
2021/06/22 08:15:20;;;;;;;9.48;2.95;;;;;;;42.02;19.79;100230.25;5135266;28;20470;-79
2021/06/22 08:17:46;;;;;;;8.20;3.05;;;;;;;42.39;20.11;100229.34;5136263;27;20043;-80
2021/06/22 08:20:12;;;;;;;5.20;2.90;;;;;;;42.99;19.30;100217.59;5134965;27;20103;-81
2021/06/22 08:22:38;;;;;;;9.65;2.70;;;;;;;43.07;18.66;100224.34;5132397;28;20495;-81
2021/06/22 08:25:05;;;;;;;5.72;2.60;;;;;;;43.39;18.49;100210.31;5132719;28;20053;-79
2021/06/22 08:27:31;;;;;;;10.73;2.75;;;;;;;43.08;18.75;100225.16;5133214;28;20046;-81
2021/06/22 08:29:57;;;;;;;8.32;2.70;;;;;;;42.94;18.47;100230.88;5133016;28;20051;-80
2021/06/22 08:32:23;;;;;;;6.32;2.60;;;;;;;42.33;19.07;100228.63;5098958;28;20082;-79
2021/06/22 08:34:49;;;;;;;5.55;2.33;;;;;;;43.36;18.11;100231.28;5134354;27;20043;-82
2021/06/22 08:37:15;;;;;;;8.30;2.60;;;;;;;42.84;18.82;100231.97;5132454;28;20039;-78
2021/06/22 08:39:41;;;;;;;8.13;2.55;;;;;;;42.65;18.99;100226.66;5133796;28;20058;-79
2021/06/22 08:42:09;;;;;;;8.23;2.45;;;;;;;42.56;19.12;100232.19;5098108;28;20055;-77
2021/06/22 08:44:37;;;;;;;5.82;2.40;;;;;;;42.57;18.98;100227.44;5089862;28;20501;-80
2021/06/22 08:47:03;;;;;;;9.00;2.70;;;;;;;41.83;19.62;100226.81;5114937;28;20077;-78
2021/06/22 08:49:31;;;;;;;8.35;2.70;;;;;;;42.77;18.78;100221.34;5133990;28;20039;-78
2021/06/22 08:51:58;;;;;;;9.45;2.85;;;;;;;43.13;18.83;100222.25;5082386;28;20050;-78
2021/06/22 08:54:24;;;;;;;5.93;2.83;;;;;;;42.51;18.89;100219.22;5116305;28;20073;-81
2021/06/22 08:56:50;;;;;;;11.48;3.15;;;;;;;41.57;20.23;100227.41;5098744;28;20483;-80
2021/06/22 08:59:15;;;;;;;;;;;;;;;42.04;19.56;100208.50;5101050;27;20050;-79
2021/06/22 09:01:41;;;;;;;9.65;3.55;;;;;;;42.61;19.28;100201.44;5109780;28;19965;-81
2021/06/22 09:04:07;;;;;;;9.40;4.55;;;;;;;42.90;19.39;100211.19;5117580;28;20048;-78
2021/06/22 09:06:51;;;;;;;9.85;3.45;;;;;;;43.16;18.63;100204.91;5098498;28;20043;-80
2021/06/22 09:09:17;;;;;;;8.13;2.90;;;;;;;42.74;19.25;100210.03;5106229;27;20043;-84
2021/06/22 09:12:03;;;;;;;13.13;2.90;;;;;;;44.21;18.05;100193.66;5120894;27;20077;-78
2021/06/22 09:14:38;;;;;;;7.53;3.15;;;;;;;44.46;17.67;100201.50;5068951;27;20076;-79
2021/06/22 09:17:05;;;;;;;6.25;2.85;;;;;;;44.45;17.15;100208.22;5087149;27;20049;-80
2021/06/22 09:19:32;;;;;;;11.13;2.90;;;;;;;44.96;16.75;100194.34;5087663;27;20083;-82
2021/06/22 09:22:18;;;;;;;9.52;2.90;;;;;;;45.37;16.29;100189.94;5048144;28;20048;-83
2021/06/22 09:25:03;;;;;;;;;;;;;;;44.19;17.34;100200.72;5035733;28;20144;-81
2021/06/22 09:27:54;;;;;;;8.35;3.03;;;;;;;43.47;18.15;100201.16;5035500;28;19952;-86
2021/06/22 09:30:51;;;;;;;11.20;3.00;;;;;;;43.76;18.28;100194.91;5036269;28;20582;-82
2021/06/22 09:33:27;;;;;;;7.70;2.83;;;;;;;43.65;17.65;100195.59;5035957;28;20060;-79
2021/06/22 09:36:20;;;;;;;12.82;3.05;;;;;;;44.03;17.52;100189.28;5019338;28;20045;-80
2021/06/22 09:38:58;;;;;;;9.20;2.40;;;;;;;44.67;16.68;100187.59;5054760;28;20053;-80
2021/06/22 09:41:27;;;;;;;11.98;2.65;;;;;;;45.51;16.41;100182.09;5037868;28;20046;-83
2021/06/22 09:44:10;;;;;;;11.68;2.88;;;;;;;45.33;16.52;100186.19;5003407;28;20489;-81
2021/06/22 09:46:47;;;;;;;9.70;2.45;;;;;;;44.33;15.65;100183.78;5018871;28;20463;-82
2021/06/22 09:49:40;;;;;;;17.63;2.63;;;;;;;43.55;16.07;100183.63;5019903;28;20056;-81
2021/06/22 09:52:18;;;;;;;9.70;2.85;;;;;;;43.07;17.36;100184.53;4926683;29;20039;-82
2021/06/22 09:54:48;;;;;;;11.25;2.60;;;;;;;42.68;17.55;100192.59;4913063;28;20397;-85
2021/06/22 09:57:19;;;;;;;10.95;3.47;;;;;;;43.67;15.78;100187.69;4978248;28;20585;-82
2021/06/22 09:59:49;;;;;;;13.75;2.90;;;;;;;43.03;14.75;100183.56;4990565;28;20064;-82
2021/06/22 10:02:15;;;;;;;9.73;2.75;;;;;;;42.99;15.02;100189.75;5009308;28;20049;-78
2021/06/22 10:04:49;;;;;;;11.02;2.80;;;;;;;42.76;15.56;100191.84;5016958;28;20145;-78
2021/06/22 10:07:17;;;;;;;9.70;2.33;;;;;;;43.08;16.12;100180.59;4984123;28;20049;-79
2021/06/22 10:09:43;;;;;;;10.75;2.55;;;;;;;42.72;16.17;100182.53;4983762;28;20165;-82
2021/06/22 10:12:15;;;;;;;9.85;2.08;;;;;;;43.15;15.32;100175.41;5018160;28;20041;-79
2021/06/22 10:14:44;;;;;;;9.60;2.28;;;;;;;43.25;15.20;100174.28;5017586;28;20076;-80
2021/06/22 10:17:18;;;;;;;12.23;2.00;;;;;;;42.96;15.30;100179.28;5020672;28;20550;-82
2021/06/22 10:19:46;;;;;;;13.55;1.92;;;;;;;42.72;13.63;100173.34;5002585;28;20072;-80
2021/06/22 10:22:17;;;;;;;13.10;2.05;;;;;;;42.48;14.22;100180.91;5003146;28;20041;-82
2021/06/22 10:24:46;;;;;;;9.70;1.67;;;;;;;42.31;14.98;100180.84;5021275;28;20069;-80
2021/06/22 10:27:17;;;;;;;9.25;2.10;;;;;;;41.74;16.27;100171.19;4971039;28;20037;-79
2021/06/22 10:29:45;;;;;;;15.15;2.25;;;;;;;41.73;16.80;100177.88;5052867;28;20416;-78
2021/06/22 10:32:14;;;;;;;11.23;2.10;;;;;;;40.97;16.71;100173.75;5083222;28;20043;-79
2021/06/22 10:34:45;;;;;;;16.23;2.70;;;;;;;40.58;17.39;100169.59;5082813;28;20496;-82
2021/06/22 10:37:24;;;;;;;7.65;2.42;;;;;;;40.21;17.69;100179.69;5065544;28;20191;-79
2021/06/22 10:40:00;;;;;;;14.48;2.58;;;;;;;40.40;17.88;100174.91;5083111;28;20100;-80
2021/06/22 10:42:39;;;;;;;10.05;2.00;;;;;;;39.44;16.97;100168.75;5064902;28;20084;-79
2021/06/22 10:45:06;;;;;;;8.82;2.17;;;;;;;39.67;16.85;100163.44;5094275;27;20219;-78
2021/06/22 10:47:36;;;;;;;10.70;2.30;;;;;;;39.66;17.37;100178.38;5136477;27;20051;-79
2021/06/22 10:50:15;;;;;;;10.90;2.20;;;;;;;39.01;18.59;100166.00;5118716;27;20039;-80
2021/06/22 10:52:41;;;;;;;12.82;2.50;;;;;;;38.19;19.26;100174.06;5120224;27;20099;-80
2021/06/22 10:55:27;;;;;;;15.00;2.75;;;;;;;37.79;20.03;100161.47;5137278;27;20043;-81
2021/06/22 10:58:06;;;;;;;15.75;2.65;;;;;;;37.86;20.48;100162.78;5120913;27;20538;-82
2021/06/22 11:00:41;;;;;;;9.25;2.10;;;;;;;37.94;20.39;100157.75;5134807;27;20063;-78
2021/06/22 11:03:09;;;;;;;15.27;2.40;;;;;;;37.72;19.73;100159.00;5135184;27;20055;-79
2021/06/22 11:05:37;;;;;;;8.45;2.03;;;;;;;37.77;20.06;100161.72;5134120;27;20415;-80
2021/06/22 11:08:15;;;;;;;12.27;2.00;;;;;;;37.38;21.13;100160.63;5135694;27;20104;-79
2021/06/22 11:10:47;;;;;;;11.50;2.15;;;;;;;37.62;20.05;100159.09;5116646;27;20527;-81
2021/06/22 11:13:44;;;;;;;19.42;2.85;;;;;;;37.47;20.77;100158.09;5117971;27;20035;-80
2021/06/22 11:16:13;;;;;;;9.98;2.78;;;;;;;37.66;20.83;100151.88;5135358;27;20131;-79
2021/06/22 11:18:54;;;;;;;13.95;2.72;;;;;;;37.02;21.16;100151.72;5117943;27;20407;-80
2021/06/22 11:21:34;;;;;;;12.43;2.47;;;;;;;36.94;21.54;100150.41;5133882;27;20047;-76
2021/06/22 11:24:22;;;;;;;12.30;2.72;;;;;;;36.57;21.68;100152.44;5118143;27;20127;-80
2021/06/22 11:26:49;;;;;;;12.48;2.45;;;;;;;36.73;21.50;100142.19;5116707;27;20141;-80
2021/06/22 11:29:14;;;;;;;11.45;2.22;;;;;;;36.84;21.53;100140.22;5117146;27;20486;-78
2021/06/22 11:31:46;;;;;;;13.07;2.65;;;;;;;36.85;21.91;100141.03;5134347;27;20142;-81
2021/06/22 11:34:34;;;;;;;14.60;2.60;;;;;;;36.31;22.33;100148.09;5135583;27;20188;-79
2021/06/22 11:37:07;;;;;;;15.38;2.75;;;;;;;36.14;22.95;100140.13;5100352;27;20103;-78
2021/06/22 11:40:08;;;;;;;17.55;2.60;;;;;;;36.19;23.06;100138.19;5118048;27;20527;-79
2021/06/22 11:42:37;;;;;;;15.10;2.97;;;;;;;36.19;23.17;100140.94;5133572;27;20057;-81
2021/06/22 11:45:03;;;;;;;9.55;2.38;;;;;;;36.20;24.05;100145.34;5099578;27;20043;-81
2021/06/22 11:47:32;;;;;;;11.70;2.78;;;;;;;35.74;23.45;100145.34;5134379;27;20047;-79
2021/06/22 11:50:00;;;;;;;13.45;2.70;;;;;;;35.52;24.04;100132.69;5134127;27;20035;-83
2021/06/22 11:52:38;;;;;;;12.25;2.90;;;;;;;35.49;24.07;100138.72;5133183;27;20057;-81
2021/06/22 11:55:19;;;;;;;8.80;2.30;;;;;;;35.45;24.37;100140.38;5099677;27;20035;-83
2021/06/22 11:57:47;;;;;;;14.75;5.18;;;;;;;35.38;24.42;100139.81;5083833;27;20043;-79
2021/06/22 12:00:17;;;;;;;19.23;2.80;;;;;;;35.40;24.39;100132.13;5116812;27;20047;-78
2021/06/22 12:02:57;;;;;;;12.85;3.13;;;;;;;35.43;24.36;100131.56;5115991;27;20047;-82
2021/06/22 12:05:25;;;;;;;11.15;2.63;;;;;;;35.25;24.76;100125.47;5133324;27;20045;-80
2021/06/22 12:07:54;;;;;;;14.25;3.30;;;;;;;35.39;24.87;100144.22;5116620;27;20519;-81
2021/06/22 12:10:23;;;;;;;16.48;3.20;;;;;;;34.88;24.82;100137.50;5134234;27;20089;-78
2021/06/22 12:12:50;;;;;;;12.60;3.08;;;;;;;34.80;25.06;100127.78;5099903;28;20138;-81
2021/06/22 12:15:35;;;;;;;15.63;2.88;;;;;;;34.87;24.60;100133.09;5098974;28;20540;-79
2021/06/22 12:18:01;;;;;;;12.77;2.70;;;;;;;34.79;24.84;100126.16;5134200;28;20065;-81
2021/06/22 12:20:30;;;;;;;13.07;2.85;;;;;;;34.72;24.79;100127.47;5133689;28;20089;-80
2021/06/22 12:23:09;;;;;;;12.05;3.03;;;;;;;34.87;25.71;100126.75;5134352;27;20088;-77
2021/06/22 12:26:05;;;;;;;15.45;3.50;;;;;;;34.70;25.53;100124.19;5132239;28;20035;-79
2021/06/22 12:28:32;;;;;;;13.82;2.70;;;;;;;34.49;25.95;100122.19;5036981;28;20071;-78
2021/06/22 12:31:00;;;;;;;12.68;2.70;;;;;;;34.37;26.04;100126.22;5071675;28;20040;-76
2021/06/22 12:33:44;;;;;;;8.35;2.63;;;;;;;34.38;26.62;100119.63;5072459;28;20060;-79
2021/06/22 12:36:12;;;;;;;15.05;2.92;;;;;;;34.39;26.57;100121.28;5075134;28;20056;-77
2021/06/22 12:38:40;;;;;;;14.88;3.03;;;;;;;34.44;26.60;100118.56;5057700;28;20060;-77
2021/06/22 12:41:10;;;;;;;15.30;3.10;;;;;;;34.53;26.13;100111.47;5040623;28;20095;-80
2021/06/22 12:43:45;;;;;;;13.05;2.65;;;;;;;34.38;26.14;100112.22;5037572;28;20045;-81
2021/06/22 12:46:12;;;;;;;13.45;3.13;;;;;;;34.28;26.54;100099.25;5038762;28;20056;-79
2021/06/22 12:48:38;;;;;;;14.77;3.30;;;;;;;34.44;26.66;100102.91;5022024;28;20059;-81
2021/06/22 12:51:05;;;;;;;10.63;3.15;;;;;;;34.32;26.58;100105.84;5005837;28;20421;-80
2021/06/22 12:53:32;;;;;;;10.75;2.92;;;;;;;34.14;26.82;100114.53;5039367;28;20052;-78
2021/06/22 12:56:18;;;;;;;11.68;2.60;;;;;;;34.12;26.83;100111.22;5038613;28;20045;-77
2021/06/22 12:58:47;;;;;;;;;;;;;;;34.43;26.76;100100.44;5041127;28;20053;-80
2021/06/22 13:01:26;;;;;;;12.52;2.65;;;;;;;34.34;26.48;100103.72;5040198;28;20393;-81
2021/06/22 13:03:52;;;;;;;15.75;2.72;;;;;;;34.31;26.79;100098.69;5062033;28;20126;-83
2021/06/22 13:06:26;;;;;;;12.93;2.93;;;;;;;34.39;26.31;100094.66;5099620;28;20041;-81
2021/06/22 13:08:57;;;;;;;13.15;3.00;;;;;;;34.27;26.55;100094.00;5100706;28;20577;-80